createdAt,value
2022-08-11T00:01:29.193Z,6.67
2022-08-11T00:03:58.746Z,7.50
2022-08-11T00:06:28.898Z,6.50
2022-08-11T00:08:56.588Z,5.87
2022-08-11T00:11:36.346Z,6.40
2022-08-11T00:14:05.186Z,6.27
2022-08-11T00:16:32.839Z,6.20
2022-08-11T00:19:01.262Z,5.77
2022-08-11T00:21:54.564Z,6.30
2022-08-11T00:24:16.522Z,6.47
2022-08-11T00:26:52.332Z,6.40
2022-08-11T00:29:20.605Z,6.20
2022-08-11T00:31:54.468Z,6.10
2022-08-11T00:34:25.377Z,6.63
2022-08-11T00:37:08.708Z,6.47
2022-08-11T00:39:44.586Z,7.00
2022-08-11T00:42:17.478Z,7.17
2022-08-11T00:45:07.170Z,6.80
2022-08-11T00:47:36.490Z,6.50
2022-08-11T00:50:15.059Z,7.07
2022-08-11T00:53:03.166Z,7.07
2022-08-11T00:55:42.421Z,6.50
2022-08-11T00:58:31.884Z,6.93
2022-08-11T01:01:16.772Z,6.73
2022-08-11T01:04:17.342Z,8.27
2022-08-11T01:06:58.969Z,7.67
2022-08-11T01:09:49.734Z,6.73
2022-08-11T01:12:25.370Z,7.90
2022-08-11T01:15:31.014Z,7.07
2022-08-11T01:18:28.462Z,6.93
2022-08-11T01:21:17.000Z,6.90
2022-08-11T01:24:14.757Z,6.40
2022-08-11T01:27:00.204Z,6.93
2022-08-11T01:30:00.676Z,6.37
2022-08-11T01:32:36.435Z,6.80
2022-08-11T01:35:37.368Z,6.23
2022-08-11T01:38:18.968Z,6.30
2022-08-11T01:41:20.303Z,7.23
2022-08-11T01:44:43.413Z,7.20
2022-08-11T01:47:52.633Z,5.80
2022-08-11T01:50:47.520Z,6.40
2022-08-11T01:53:41.757Z,6.63
2022-08-11T01:56:29.456Z,6.90
2022-08-11T01:59:20.988Z,6.60
2022-08-11T02:02:07.756Z,6.80
2022-08-11T02:04:58.225Z,6.97
2022-08-11T02:07:35.032Z,6.50
2022-08-11T02:10:40.401Z,6.20
2022-08-11T02:13:20.617Z,6.63
2022-08-11T02:16:11.250Z,7.43
2022-08-11T02:19:00.350Z,8.40
2022-08-11T02:22:24.874Z,8.40
2022-08-11T02:25:02.814Z,7.90
2022-08-11T02:28:02.166Z,6.77
2022-08-11T02:30:35.355Z,7.77
2022-08-11T02:33:24.398Z,6.87
2022-08-11T02:36:28.796Z,6.83
2022-08-11T02:39:00.865Z,7.30
2022-08-11T02:42:33.424Z,6.93
2022-08-11T02:45:09.998Z,7.17
2022-08-11T02:48:19.778Z,8.40
2022-08-11T02:51:05.006Z,6.63
2022-08-11T02:54:10.766Z,6.20
2022-08-11T02:57:04.190Z,5.90
2022-08-11T02:59:57.531Z,6.10
2022-08-11T03:02:34.549Z,7.57
2022-08-11T03:05:20.196Z,7.07
2022-08-11T03:08:15.842Z,6.60
2022-08-11T03:11:18.991Z,6.57
2022-08-11T03:14:24.626Z,6.90
2022-08-11T03:17:04.357Z,6.67
2022-08-11T03:19:59.895Z,6.27
2022-08-11T03:23:19.705Z,6.40
2022-08-11T03:26:19.508Z,6.50
2022-08-11T03:29:01.891Z,6.20
2022-08-11T03:31:33.943Z,6.80
2022-08-11T03:34:12.702Z,6.13
2022-08-11T03:37:15.481Z,6.23
2022-08-11T03:39:58.161Z,6.50
2022-08-11T03:42:47.391Z,6.67
2022-08-11T03:45:27.124Z,6.78
2022-08-11T03:48:15.661Z,6.63
2022-08-11T03:50:55.681Z,6.83
2022-08-11T03:54:00.291Z,7.80
2022-08-11T03:56:55.611Z,7.47
2022-08-11T04:00:00.627Z,7.63
2022-08-11T04:02:57.982Z,7.07
2022-08-11T04:05:55.580Z,6.65
2022-08-11T04:08:59.985Z,6.50
2022-08-11T04:12:03.643Z,7.00
2022-08-11T04:15:13.761Z,6.80
2022-08-11T04:17:59.326Z,6.33
2022-08-11T04:20:49.916Z,6.37
2022-08-11T04:24:33.130Z,6.80
2022-08-11T04:26:34.282Z,6.30
2022-08-11T04:29:25.729Z,7.13
2022-08-11T04:32:22.000Z,7.40
2022-08-11T04:35:19.885Z,6.40
2022-08-11T04:38:14.409Z,7.30
2022-08-11T04:40:43.807Z,7.00
2022-08-11T04:43:37.779Z,7.60
2022-08-11T04:47:02.156Z,6.70
2022-08-11T04:49:50.296Z,6.83
2022-08-11T04:53:02.948Z,6.50
2022-08-11T04:56:14.286Z,6.43
2022-08-11T04:59:41.568Z,6.33
2022-08-11T05:02:47.129Z,6.50
2022-08-11T05:05:57.194Z,7.00
2022-08-11T05:08:43.059Z,6.43
2022-08-11T05:11:29.093Z,6.43
2022-08-11T05:14:29.671Z,6.40
2022-08-11T05:17:42.890Z,6.73
2022-08-11T05:20:30.240Z,6.27
2022-08-11T05:23:24.087Z,6.40
2022-08-11T05:26:46.284Z,6.80
2022-08-11T05:29:23.503Z,6.10
2022-08-11T05:32:16.898Z,6.13
2022-08-11T05:34:56.746Z,6.30
2022-08-11T05:37:33.503Z,6.50
2022-08-11T05:40:31.428Z,6.17
2022-08-11T05:43:30.239Z,6.37
2022-08-11T05:46:20.797Z,6.93
2022-08-11T05:49:06.933Z,6.87
2022-08-11T05:51:55.277Z,6.30
2022-08-11T05:54:42.550Z,6.40
2022-08-11T05:57:49.647Z,6.13
2022-08-11T06:00:15.283Z,6.50
2022-08-11T06:02:49.261Z,6.03
2022-08-11T06:05:17.257Z,7.83
2022-08-11T06:07:53.919Z,6.03
2022-08-11T06:10:35.909Z,6.23
2022-08-11T06:13:04.962Z,6.00
2022-08-11T06:15:34.701Z,5.93
2022-08-11T06:18:03.177Z,5.73
2022-08-11T06:20:37.511Z,6.00
2022-08-11T06:23:07.294Z,6.30
2022-08-11T06:25:36.177Z,6.00
2022-08-11T06:28:05.263Z,5.87
2022-08-11T06:30:41.974Z,6.00
2022-08-11T06:33:29.171Z,4.77
2022-08-11T06:36:09.360Z,4.80
2022-08-11T06:38:44.908Z,4.97
2022-08-11T06:41:31.664Z,4.80
2022-08-11T06:44:13.746Z,4.53
2022-08-11T06:46:53.183Z,4.37
2022-08-11T06:49:42.638Z,3.97
2022-08-11T06:52:35.879Z,3.50
2022-08-11T06:55:56.597Z,3.73
2022-08-11T06:58:16.589Z,3.47
2022-08-11T07:00:45.047Z,3.17
2022-08-11T07:03:19.166Z,3.40
2022-08-11T07:05:48.920Z,3.33
2022-08-11T07:08:58.898Z,2.87
2022-08-11T07:12:11.961Z,3.10
2022-08-11T07:15:05.005Z,3.20
2022-08-11T07:17:42.647Z,3.03
2022-08-11T07:20:43.879Z,3.27
2022-08-11T07:23:29.266Z,2.83
2022-08-11T07:26:18.102Z,3.27
2022-08-11T07:28:58.490Z,3.07
2022-08-11T07:31:51.004Z,3.10
2022-08-11T07:34:25.074Z,2.80
2022-08-11T07:36:55.457Z,3.50
2022-08-11T07:39:28.598Z,3.40
2022-08-11T07:41:58.735Z,3.63
2022-08-11T07:44:34.349Z,3.57
2022-08-11T07:47:20.697Z,3.20
2022-08-11T07:50:09.069Z,3.40
2022-08-11T07:52:38.113Z,3.40
2022-08-11T07:55:13.182Z,3.90
2022-08-11T07:58:14.958Z,3.57
2022-08-11T08:01:10.609Z,3.77
2022-08-11T08:04:07.308Z,4.03
2022-08-11T08:06:53.148Z,3.90
2022-08-11T08:09:40.091Z,3.90
2022-08-11T08:12:27.702Z,3.83
2022-08-11T08:15:14.946Z,3.30
2022-08-11T08:18:25.412Z,3.57
2022-08-11T08:20:42.750Z,3.77
2022-08-11T08:23:11.328Z,4.03
2022-08-11T08:25:43.744Z,3.97
2022-08-11T08:28:19.900Z,3.53
2022-08-11T08:30:51.186Z,3.50
2022-08-11T08:33:29.875Z,4.63
2022-08-11T08:36:12.980Z,3.70
2022-08-11T08:38:56.486Z,3.50
2022-08-11T08:41:32.183Z,3.50
2022-08-11T08:44:34.751Z,3.40
2022-08-11T08:46:55.235Z,4.13
2022-08-11T08:49:40.557Z,3.80
2022-08-11T08:52:28.073Z,3.60
2022-08-11T08:54:58.020Z,3.60
2022-08-11T08:57:28.856Z,3.53
2022-08-11T08:59:56.846Z,3.77
2022-08-11T09:02:34.762Z,3.70
2022-08-11T09:05:03.968Z,3.80
2022-08-11T09:07:38.705Z,3.80
2022-08-11T09:10:08.598Z,3.93
2022-08-11T09:12:39.125Z,3.40
2022-08-11T09:15:09.995Z,3.20
2022-08-11T09:17:44.761Z,3.80
2022-08-11T09:20:17.799Z,3.27
2022-08-11T09:24:08.409Z,3.27
2022-08-11T09:26:16.086Z,3.27
2022-08-11T09:28:44.353Z,3.17
2022-08-11T09:31:13.487Z,3.00
2022-08-11T09:33:43.205Z,3.50
2022-08-11T09:36:47.728Z,3.10
2022-08-11T09:39:33.434Z,3.23
2022-08-11T09:42:04.406Z,3.30
2022-08-11T09:44:49.685Z,3.27
2022-08-11T09:47:21.531Z,3.30
2022-08-11T09:49:49.340Z,2.70
2022-08-11T09:52:18.435Z,2.93
2022-08-11T09:54:48.742Z,3.17
2022-08-11T09:57:37.912Z,3.30
2022-08-11T10:00:13.326Z,3.10
2022-08-11T10:02:43.937Z,2.90
2022-08-11T10:05:32.568Z,2.87
2022-08-11T10:08:01.348Z,3.20
2022-08-11T10:10:29.354Z,3.10
2022-08-11T10:13:04.257Z,3.40
2022-08-11T10:15:35.420Z,3.30
2022-08-11T10:18:23.680Z,3.07
2022-08-11T10:20:54.138Z,3.33
2022-08-11T10:24:01.480Z,3.10
2022-08-11T10:26:47.581Z,3.40
2022-08-11T10:29:36.829Z,3.00
2022-08-11T10:32:30.160Z,3.13
2022-08-11T10:35:01.286Z,3.13
2022-08-11T10:38:07.783Z,3.00
2022-08-11T10:40:24.728Z,2.80
2022-08-11T10:43:02.860Z,3.00
2022-08-11T10:45:50.298Z,2.70
2022-08-11T10:48:21.179Z,2.77
2022-08-11T10:51:08.604Z,3.00
2022-08-11T10:53:56.525Z,2.80
2022-08-11T10:56:42.481Z,2.80
2022-08-11T10:59:10.318Z,2.80
2022-08-11T11:01:44.020Z,3.53
2022-08-11T11:04:39.659Z,3.10
2022-08-11T11:07:16.849Z,2.83
2022-08-11T11:09:54.239Z,2.90
2022-08-11T11:12:49.162Z,2.80
2022-08-11T11:15:37.692Z,2.90
2022-08-11T11:18:09.442Z,3.00
2022-08-11T11:20:46.720Z,2.73
2022-08-11T11:23:24.062Z,3.17
2022-08-11T11:26:27.057Z,3.10
2022-08-11T11:29:11.072Z,3.10
2022-08-11T11:32:01.038Z,3.10
2022-08-11T11:34:53.441Z,2.90
2022-08-11T11:37:22.965Z,2.97
2022-08-11T11:39:50.475Z,3.00
2022-08-11T11:42:18.668Z,2.80
2022-08-11T11:44:46.878Z,3.37
2022-08-11T11:47:15.552Z,2.90
2022-08-11T11:49:44.004Z,2.93
2022-08-11T11:52:18.129Z,2.67
2022-08-11T11:54:50.154Z,2.63
2022-08-11T11:57:36.403Z,2.87
2022-08-11T12:00:33.686Z,2.67
2022-08-11T12:03:03.723Z,2.87
2022-08-11T12:05:33.474Z,2.80
2022-08-11T12:08:18.069Z,2.77
2022-08-11T12:11:12.085Z,3.53
2022-08-11T12:13:44.533Z,3.00
2022-08-11T12:16:32.907Z,2.83
2022-08-11T12:19:01.801Z,2.90
2022-08-11T12:21:29.903Z,2.67
2022-08-11T12:24:16.943Z,2.90
2022-08-11T12:27:02.770Z,2.60
2022-08-11T12:29:41.271Z,3.03
2022-08-11T12:32:11.087Z,2.97
2022-08-11T12:34:37.932Z,2.97
2022-08-11T12:37:10.763Z,3.03
2022-08-11T12:40:15.666Z,2.63
2022-08-11T12:43:22.049Z,3.60
2022-08-11T12:45:58.522Z,3.20
2022-08-11T12:48:58.518Z,2.73
2022-08-11T12:52:11.360Z,3.00
2022-08-11T12:54:54.345Z,3.20
2022-08-11T12:57:45.062Z,3.33
2022-08-11T13:00:30.967Z,3.20
2022-08-11T13:03:16.958Z,3.27
2022-08-11T13:05:46.101Z,2.90
2022-08-11T13:08:17.267Z,3.30
2022-08-11T13:11:04.307Z,3.00
2022-08-11T13:13:53.471Z,2.97
2022-08-11T13:16:20.587Z,2.90
2022-08-11T13:18:47.691Z,3.30
2022-08-11T13:21:20.877Z,3.00
2022-08-11T13:24:01.784Z,2.77
2022-08-11T13:26:46.842Z,3.13
2022-08-11T13:29:27.620Z,2.80
2022-08-11T13:31:58.336Z,3.10
2022-08-11T13:34:27.020Z,3.00
2022-08-11T13:36:56.891Z,3.23
2022-08-11T13:39:26.186Z,3.10
2022-08-11T13:41:59.274Z,3.40
2022-08-11T13:44:31.298Z,3.13
2022-08-11T13:47:01.385Z,3.57
2022-08-11T13:49:30.238Z,3.53
2022-08-11T13:51:57.640Z,3.17
2022-08-11T13:54:28.067Z,3.53
2022-08-11T13:56:56.939Z,3.30
2022-08-11T13:59:30.216Z,3.13
2022-08-11T14:02:28.505Z,2.80
2022-08-11T14:05:01.442Z,3.80
2022-08-11T14:07:35.456Z,2.90
2022-08-11T14:10:04.080Z,3.40
2022-08-11T14:12:53.357Z,3.70
2022-08-11T14:15:32.884Z,3.50
2022-08-11T14:18:08.678Z,2.90
2022-08-11T14:20:57.667Z,2.83
2022-08-11T14:23:29.419Z,3.33
2022-08-11T14:26:15.703Z,3.00
2022-08-11T14:28:45.042Z,2.80
2022-08-11T14:31:16.297Z,3.40
2022-08-11T14:34:00.883Z,3.60
2022-08-11T14:36:40.685Z,2.90
2022-08-11T14:39:12.774Z,3.17
2022-08-11T14:42:13.204Z,2.97
2022-08-11T14:45:11.082Z,3.17
2022-08-11T14:47:41.975Z,3.30
2022-08-11T14:50:13.961Z,3.20
2022-08-11T14:52:57.689Z,3.40
2022-08-11T14:55:47.183Z,3.53
2022-08-11T14:58:18.018Z,3.33
2022-08-11T15:00:46.322Z,3.20
2022-08-11T15:03:15.313Z,3.27
2022-08-11T15:05:57.497Z,3.17
2022-08-11T15:08:56.771Z,3.03
2022-08-11T15:11:47.250Z,3.30
2022-08-11T15:14:14.622Z,3.40
2022-08-11T15:17:02.656Z,2.93
2022-08-11T15:19:40.479Z,3.27
2022-08-11T15:22:35.517Z,3.17
2022-08-11T15:25:02.522Z,3.37
2022-08-11T15:27:50.042Z,3.03
2022-08-11T15:30:35.441Z,3.50
2022-08-11T15:33:24.536Z,3.40
2022-08-11T15:36:11.483Z,3.23
2022-08-11T15:39:02.895Z,4.20
2022-08-11T15:42:20.266Z,3.90
2022-08-11T15:45:11.395Z,4.10
2022-08-11T15:47:47.854Z,3.93
2022-08-11T15:50:19.857Z,3.70
2022-08-11T15:53:18.827Z,3.90
2022-08-11T15:55:47.447Z,3.40
2022-08-11T15:58:33.776Z,4.27
2022-08-11T16:01:20.263Z,3.97
2022-08-11T16:04:12.981Z,3.77
2022-08-11T16:07:11.583Z,4.10
2022-08-11T16:09:51.918Z,3.40
2022-08-11T16:12:25.089Z,3.57
2022-08-11T16:15:14.967Z,3.60
2022-08-11T16:18:02.777Z,3.93
2022-08-11T16:20:31.744Z,3.47
2022-08-11T16:23:03.022Z,3.70
2022-08-11T16:27:07.289Z,3.77
2022-08-11T16:28:21.601Z,3.50
2022-08-11T16:30:49.092Z,3.77
2022-08-11T16:33:48.729Z,4.10
2022-08-11T16:36:23.802Z,3.50
2022-08-11T16:38:51.520Z,3.87
2022-08-11T16:41:41.262Z,3.70
2022-08-11T16:44:32.791Z,3.73
2022-08-11T16:47:10.751Z,4.03
2022-08-11T16:49:52.105Z,3.63
2022-08-11T16:52:20.810Z,3.53
2022-08-11T16:54:47.965Z,3.60
2022-08-11T16:57:43.868Z,3.57
2022-08-11T17:00:16.873Z,4.83
2022-08-11T17:03:07.774Z,3.73
2022-08-11T17:05:55.393Z,3.63
2022-08-11T17:08:57.200Z,3.60
2022-08-11T17:11:45.779Z,3.63
2022-08-11T17:14:16.811Z,3.63
2022-08-11T17:16:49.084Z,3.67
2022-08-11T17:20:38.277Z,3.67
2022-08-11T17:22:35.066Z,4.17
2022-08-11T17:25:04.845Z,4.10
2022-08-11T17:27:33.845Z,4.10
2022-08-11T17:30:04.611Z,4.00
2022-08-11T17:33:01.032Z,3.67
2022-08-11T17:35:38.539Z,3.73
2022-08-11T17:38:09.618Z,4.23
2022-08-11T17:40:39.016Z,3.80
2022-08-11T17:43:28.104Z,3.37
2022-08-11T17:46:15.550Z,3.43
2022-08-11T17:48:47.562Z,3.90
2022-08-11T17:51:38.117Z,4.20
2022-08-11T17:54:25.413Z,3.87
2022-08-11T17:57:20.253Z,4.10
2022-08-11T17:59:53.260Z,4.30
2022-08-11T18:02:44.128Z,4.13
2022-08-11T18:05:13.731Z,3.70
2022-08-11T18:08:04.024Z,3.83
2022-08-11T18:10:50.941Z,3.73
2022-08-11T18:13:39.978Z,4.30
2022-08-11T18:16:26.776Z,4.07
2022-08-11T18:19:12.454Z,3.63
2022-08-11T18:22:15.153Z,4.10
2022-08-11T18:25:08.855Z,4.30
2022-08-11T18:27:56.856Z,4.43
2022-08-11T18:30:44.058Z,4.37
2022-08-11T18:36:42.667Z,4.20
2022-08-11T18:39:30.742Z,5.30
2022-08-11T18:42:29.113Z,4.73
2022-08-11T18:45:19.871Z,4.30
2022-08-11T18:48:09.296Z,4.97
2022-08-11T18:51:31.575Z,5.30
2022-08-11T18:54:10.541Z,4.50
2022-08-11T18:56:55.941Z,4.93
2022-08-11T18:59:45.949Z,5.27
2022-08-11T19:02:32.551Z,4.40
2022-08-11T19:06:06.218Z,4.43
2022-08-11T19:08:42.099Z,4.53
2022-08-11T19:11:30.458Z,4.77
2022-08-11T19:14:17.199Z,4.63
2022-08-11T19:17:03.954Z,4.33
2022-08-11T19:19:51.593Z,5.00
2022-08-11T19:22:38.745Z,4.77
2022-08-11T19:25:25.950Z,4.47
2022-08-11T19:28:13.593Z,4.40
2022-08-11T19:30:59.839Z,4.07
2022-08-11T19:34:00.375Z,4.43
2022-08-11T19:36:53.389Z,4.47
2022-08-11T19:39:40.565Z,4.30
2022-08-11T19:42:30.869Z,6.03
2022-08-11T19:45:18.316Z,5.10
2022-08-11T19:48:28.467Z,5.43
2022-08-11T19:51:12.487Z,5.50
2022-08-11T19:53:58.602Z,5.50
2022-08-11T19:56:44.728Z,4.67
2022-08-11T19:59:31.313Z,4.90
2022-08-11T20:02:16.986Z,4.40
2022-08-11T20:05:02.636Z,4.67
2022-08-11T20:07:50.303Z,4.90
2022-08-11T20:10:39.299Z,4.80
2022-08-11T20:13:29.255Z,4.80
2022-08-11T20:16:17.698Z,7.03
2022-08-11T20:19:05.726Z,4.97
2022-08-11T20:21:52.933Z,5.20
2022-08-11T20:24:39.372Z,4.87
2022-08-11T20:27:27.279Z,4.80
2022-08-11T20:30:14.970Z,4.60
2022-08-11T20:33:02.061Z,5.40
2022-08-11T20:35:47.910Z,5.40
2022-08-11T20:38:34.644Z,4.87
2022-08-11T20:41:22.184Z,5.43
2022-08-11T20:44:09.667Z,5.40
2022-08-11T20:46:57.754Z,5.40
2022-08-11T20:49:52.579Z,5.43
2022-08-11T20:52:47.282Z,4.93
2022-08-11T20:55:51.982Z,5.13
2022-08-11T21:01:47.234Z,5.00
2022-08-11T21:04:37.706Z,5.27
2022-08-11T21:07:42.204Z,5.07
2022-08-11T21:10:29.670Z,5.47
2022-08-11T21:13:26.935Z,5.57
2022-08-11T21:16:25.113Z,4.87
2022-08-11T21:19:19.222Z,5.30
2022-08-11T21:22:28.085Z,4.90
2022-08-11T21:25:16.386Z,5.60
2022-08-11T21:28:04.427Z,5.10
2022-08-11T21:30:50.829Z,5.20
2022-08-11T21:33:41.265Z,5.47
2022-08-11T21:36:28.720Z,5.00
2022-08-11T21:39:14.393Z,4.83
2022-08-11T21:41:59.497Z,4.80
2022-08-11T21:44:46.078Z,5.00
2022-08-11T21:47:42.755Z,5.30
2022-08-11T21:50:30.382Z,5.10
2022-08-11T21:53:17.077Z,5.07
2022-08-11T21:56:03.506Z,5.43
2022-08-11T21:58:51.045Z,5.20
2022-08-11T22:01:37.686Z,5.60
2022-08-11T22:04:23.817Z,5.33
2022-08-11T22:07:09.881Z,5.20
2022-08-11T22:09:55.949Z,5.63
2022-08-11T22:12:45.043Z,5.30
2022-08-11T22:15:31.428Z,5.57
2022-08-11T22:18:17.116Z,5.03
2022-08-11T22:21:03.008Z,5.40
2022-08-11T22:23:50.082Z,5.40
2022-08-11T22:26:36.535Z,5.10
2022-08-11T22:29:50.230Z,5.40
2022-08-11T22:32:30.871Z,5.27
2022-08-11T22:35:18.291Z,5.17
2022-08-11T22:38:05.377Z,5.60
2022-08-11T22:40:52.295Z,5.50
2022-08-11T22:43:38.259Z,5.50
2022-08-11T22:46:24.132Z,5.53
2022-08-11T22:49:11.015Z,5.00
2022-08-11T22:51:59.477Z,5.13
2022-08-11T22:54:45.561Z,5.67
2022-08-11T22:57:32.102Z,5.47
2022-08-11T23:00:19.551Z,5.70
2022-08-11T23:03:06.042Z,5.57
2022-08-11T23:05:56.942Z,5.97
2022-08-11T23:08:42.907Z,5.50
2022-08-11T23:11:28.582Z,5.43
2022-08-11T23:14:34.142Z,5.73
2022-08-11T23:17:19.721Z,5.40
2022-08-11T23:20:20.641Z,5.90
2022-08-11T23:23:11.851Z,5.83
2022-08-11T23:25:59.119Z,5.80
2022-08-11T23:28:46.458Z,6.27
2022-08-11T23:31:50.400Z,5.60
2022-08-11T23:35:04.021Z,5.40
2022-08-11T23:37:51.248Z,5.83
2022-08-11T23:40:36.853Z,5.60
2022-08-11T23:43:22.340Z,5.17
2022-08-11T23:46:07.901Z,5.50
2022-08-11T23:48:55.342Z,5.50
2022-08-11T23:51:41.671Z,5.70
2022-08-11T23:54:31.581Z,5.70
2022-08-11T23:57:20.993Z,5.53
